createdAt,value
2017-10-02T00:00:43.370Z,91.73
2017-10-02T00:01:43.040Z,91.53
2017-10-02T00:02:43.323Z,91.44
2017-10-02T00:03:43.300Z,91.53
2017-10-02T00:04:43.283Z,91.53
2017-10-02T00:05:43.256Z,91.53
2017-10-02T00:06:43.234Z,91.63
2017-10-02T00:07:42.913Z,92.02
2017-10-02T00:08:43.188Z,91.44
2017-10-02T00:09:43.167Z,91.11
2017-10-02T00:10:42.839Z,91.73
2017-10-02T00:11:43.120Z,91.73
2017-10-02T00:12:43.105Z,91.39
2017-10-02T00:13:43.080Z,91.44
2017-10-02T00:14:43.060Z,91.73
2017-10-02T00:15:43.040Z,91.73
2017-10-02T00:16:43.012Z,91.53
2017-10-02T00:17:42.993Z,91.44
2017-10-02T00:18:42.978Z,91.44
2017-10-02T00:19:43.009Z,91.44
2017-10-02T00:20:42.927Z,91.53
2017-10-02T00:21:42.909Z,91.63
2017-10-02T00:22:42.883Z,91.73
2017-10-02T00:23:42.860Z,91.73
2017-10-02T00:24:42.838Z,91.92
2017-10-02T00:25:42.822Z,91.49
2017-10-02T00:26:42.792Z,91.49
2017-10-02T00:27:42.783Z,91.68
2017-10-02T00:28:42.752Z,91.49
2017-10-02T00:29:42.730Z,91.53
2017-10-02T00:30:42.707Z,92.16
2017-10-02T00:31:42.685Z,91.2
2017-10-02T00:32:42.671Z,91.78
2017-10-02T00:33:42.695Z,91.78
2017-10-02T00:34:42.619Z,92.07
2017-10-02T00:35:42.595Z,92.07
2017-10-02T00:36:42.586Z,91.97
2017-10-02T00:37:42.555Z,92.07
2017-10-02T00:38:42.531Z,91.97
2017-10-02T00:39:42.510Z,91.59
2017-10-02T00:40:42.487Z,92.07
2017-10-02T00:41:42.471Z,91.68
2017-10-02T00:42:42.448Z,91.53
2017-10-02T00:43:42.421Z,91.68
2017-10-02T00:44:42.400Z,91.39
2017-10-02T00:45:42.079Z,91.49
2017-10-02T00:46:42.356Z,91.44
2017-10-02T00:47:42.357Z,91.49
2017-10-02T00:48:42.315Z,91.68
2017-10-02T00:49:42.292Z,91.39
2017-10-02T00:50:42.269Z,91.39
2017-10-02T00:51:42.261Z,91.3
2017-10-02T00:52:42.226Z,91.49
2017-10-02T00:53:42.202Z,91.53
2017-10-02T00:54:42.180Z,91.3
2017-10-02T00:55:42.163Z,91.49
2017-10-02T00:56:42.144Z,91.3
2017-10-02T00:57:42.114Z,91.63
2017-10-02T00:58:42.093Z,91.73
2017-10-02T00:59:42.074Z,91.63
2017-10-02T01:00:41.741Z,91.73
2017-10-02T01:01:42.034Z,91.53
2017-10-02T01:02:42.012Z,91.63
2017-10-02T01:03:41.987Z,91.53
2017-10-02T01:04:41.961Z,91.49
2017-10-02T01:05:41.992Z,91.83
2017-10-02T01:06:41.923Z,91.68
2017-10-02T01:07:41.896Z,91.73
2017-10-02T01:08:41.873Z,91.73
2017-10-02T01:09:41.855Z,91.73
2017-10-02T01:10:41.830Z,91.35
2017-10-02T01:11:41.807Z,91.25
2017-10-02T01:12:41.787Z,91.35
2017-10-02T01:13:41.767Z,91.35
2017-10-02T01:14:41.434Z,91.25
2017-10-02T01:15:41.721Z,91.53
2017-10-02T01:16:41.698Z,91.35
2017-10-02T01:17:41.676Z,91.35
2017-10-02T01:18:41.659Z,91.35
2017-10-02T01:19:41.633Z,91.44
2017-10-02T01:20:41.609Z,91.35
2017-10-02T01:21:41.587Z,91.53
2017-10-02T01:22:41.564Z,91.35
2017-10-02T01:23:41.549Z,91.35
2017-10-02T01:24:41.524Z,91.44
2017-10-02T01:25:41.505Z,91.44
2017-10-02T01:26:41.481Z,91.53
2017-10-02T01:27:41.458Z,91.25
2017-10-02T01:28:41.435Z,91.53
2017-10-02T01:29:41.417Z,91.44
2017-10-02T01:30:41.398Z,91.63
2017-10-02T01:31:41.373Z,91.44
2017-10-02T01:32:41.348Z,91.44
2017-10-02T01:33:41.322Z,91.44
2017-10-02T01:34:41.305Z,91.44
2017-10-02T01:35:40.974Z,91.44
2017-10-02T01:36:41.263Z,91.53
2017-10-02T01:37:41.244Z,91.35
2017-10-02T01:38:41.228Z,91.35
2017-10-02T01:39:41.193Z,91.35
2017-10-02T01:40:41.170Z,91.44
2017-10-02T01:41:41.148Z,91.63
2017-10-02T01:42:41.126Z,91.53
2017-10-02T01:43:41.114Z,91.44
2017-10-02T01:44:41.081Z,91.44
2017-10-02T01:45:41.064Z,91.44
2017-10-02T01:46:41.040Z,91.44
2017-10-02T01:47:41.014Z,91.44
2017-10-02T01:48:41.004Z,91.53
2017-10-02T01:49:40.981Z,91.53
2017-10-02T01:50:40.956Z,91.63
2017-10-02T01:51:40.927Z,91.35
2017-10-02T01:52:40.912Z,91.53
2017-10-02T01:53:40.886Z,91.25
2017-10-02T01:54:40.865Z,91.35
2017-10-02T01:55:40.841Z,91.53
2017-10-02T01:56:40.822Z,91.35
2017-10-02T01:57:40.806Z,91.44
2017-10-02T01:58:40.774Z,91.53
2017-10-02T01:59:40.769Z,92.02
2017-10-02T02:00:40.736Z,92.21
2017-10-02T02:01:40.713Z,92.21
2017-10-02T02:02:40.689Z,92.4
2017-10-02T02:03:40.670Z,92.11
2017-10-02T02:04:40.646Z,92.3
2017-10-02T02:05:40.314Z,92.78
2017-10-02T02:06:40.612Z,92.64
2017-10-02T02:07:40.585Z,92.45
2017-10-02T02:08:40.558Z,92.54
2017-10-02T02:09:40.531Z,92.83
2017-10-02T02:10:40.517Z,92.16
2017-10-02T02:11:40.490Z,92.83
2017-10-02T02:12:40.471Z,92.54
2017-10-02T02:13:40.456Z,92.54
2017-10-02T02:14:40.427Z,92.74
2017-10-02T02:15:40.407Z,92.64
2017-10-02T02:16:40.431Z,92.93
2017-10-02T02:17:40.361Z,93.31
2017-10-02T02:18:40.386Z,92.93
2017-10-02T02:19:40.314Z,93.21
2017-10-02T02:20:40.330Z,93.4
2017-10-02T02:21:40.270Z,92.83
2017-10-02T02:22:40.251Z,93.4
2017-10-02T02:23:40.228Z,92.93
2017-10-02T02:24:40.203Z,93.69
2017-10-02T02:25:40.181Z,93.02
2017-10-02T02:26:40.164Z,93.21
2017-10-02T02:27:40.141Z,93.21
2017-10-02T02:28:40.115Z,93.55
2017-10-02T02:29:40.099Z,92.97
2017-10-02T02:30:39.771Z,93.26
2017-10-02T02:31:40.048Z,93.36
2017-10-02T02:32:40.025Z,93.36
2017-10-02T02:33:40.010Z,93.26
2017-10-02T02:34:39.982Z,93.45
2017-10-02T02:35:39.961Z,93.45
2017-10-02T02:36:39.938Z,93.55
2017-10-02T02:37:39.914Z,93.55
2017-10-02T02:38:39.888Z,93.45
2017-10-02T02:39:39.922Z,93.45
2017-10-02T02:40:39.848Z,93.45
2017-10-02T02:41:39.826Z,93.45
2017-10-02T02:42:39.803Z,93.36
2017-10-02T02:43:39.782Z,93.74
2017-10-02T02:44:39.767Z,93.74
2017-10-02T02:45:39.427Z,93.45
2017-10-02T02:46:39.712Z,93.45
2017-10-02T02:47:39.708Z,93.36
2017-10-02T02:48:39.668Z,93.26
2017-10-02T02:49:39.651Z,93.45
2017-10-02T02:50:39.623Z,93.26
2017-10-02T02:51:39.599Z,93.36
2017-10-02T02:52:39.582Z,93.93
2017-10-02T02:53:39.560Z,94.02
2017-10-02T02:54:39.534Z,94.12
2017-10-02T02:55:39.515Z,93.36
2017-10-02T02:56:39.185Z,94.12
2017-10-02T02:57:39.465Z,93.93
2017-10-02T02:58:39.449Z,93.93
2017-10-02T02:59:39.424Z,93.65
2017-10-02T03:00:39.397Z,94.12
2017-10-02T03:01:39.376Z,93.36
2017-10-02T03:02:39.361Z,94.02
2017-10-02T03:03:39.334Z,93.65
2017-10-02T03:04:39.335Z,93.93
2017-10-02T03:05:39.286Z,93.84
2017-10-02T03:06:39.272Z,93.26
2017-10-02T03:07:39.244Z,94.12
2017-10-02T03:08:39.220Z,93.93
2017-10-02T03:09:39.200Z,93.93
2017-10-02T03:10:39.202Z,93.65
2017-10-02T03:11:38.845Z,93.65
2017-10-02T03:12:39.132Z,94.02
2017-10-02T03:13:39.107Z,94.02
2017-10-02T03:14:39.090Z,93.84
2017-10-02T03:15:39.065Z,94.02
2017-10-02T03:16:39.044Z,93.84
2017-10-02T03:17:39.018Z,93.84
2017-10-02T03:18:39.003Z,93.74
2017-10-02T03:19:38.975Z,94.02
2017-10-02T03:20:38.961Z,93.93
2017-10-02T03:21:38.935Z,94.12
2017-10-02T03:22:38.908Z,94.31
2017-10-02T03:23:38.890Z,94.41
2017-10-02T03:24:38.868Z,94.22
2017-10-02T03:25:38.841Z,94.12
2017-10-02T03:26:38.816Z,93.93
2017-10-02T03:27:38.800Z,94.22
2017-10-02T03:28:38.776Z,93.93
2017-10-02T03:29:38.751Z,94.12
2017-10-02T03:30:38.739Z,93.93
2017-10-02T03:31:38.709Z,94.31
2017-10-02T03:32:38.691Z,94.31
2017-10-02T03:33:38.714Z,94.31
2017-10-02T03:34:38.644Z,93.84
2017-10-02T03:35:38.621Z,93.93
2017-10-02T03:36:38.606Z,94.12
2017-10-02T03:37:38.572Z,94.02
2017-10-02T03:38:38.553Z,94.12
2017-10-02T03:39:38.537Z,93.65
2017-10-02T03:40:38.508Z,93.74
2017-10-02T03:41:38.486Z,93.65
2017-10-02T03:42:38.464Z,93.74
2017-10-02T03:43:38.448Z,93.84
2017-10-02T03:44:38.419Z,93.74
2017-10-02T03:45:38.398Z,93.65
2017-10-02T03:46:38.376Z,93.45
2017-10-02T03:47:38.352Z,93.84
2017-10-02T03:48:38.329Z,94.02
2017-10-02T03:49:38.309Z,93.74
2017-10-02T03:50:38.287Z,94.12
2017-10-02T03:51:38.263Z,94.41
2017-10-02T03:52:37.934Z,94.12
2017-10-02T03:53:38.223Z,94.41
2017-10-02T03:54:38.198Z,94.02
2017-10-02T03:55:38.175Z,93.84
2017-10-02T03:56:38.157Z,94.02
2017-10-02T03:57:38.133Z,94.41
2017-10-02T03:58:38.108Z,94.22
2017-10-02T03:59:38.086Z,94.02
2017-10-02T04:00:38.062Z,93.93
2017-10-02T04:01:38.043Z,93.65
2017-10-02T04:02:38.015Z,93.55
2017-10-02T04:03:38.003Z,94.02
2017-10-02T04:04:37.976Z,93.93
2017-10-02T04:05:37.954Z,93.84
2017-10-02T04:06:37.927Z,93.65
2017-10-02T04:07:37.906Z,93.93
2017-10-02T04:08:37.882Z,93.93
2017-10-02T04:09:37.861Z,94.12
2017-10-02T04:10:37.838Z,93.65
2017-10-02T04:11:37.823Z,93.74
2017-10-02T04:12:37.793Z,93.84
2017-10-02T04:13:37.773Z,93.55
2017-10-02T04:14:37.753Z,93.65
2017-10-02T04:15:37.725Z,93.84
2017-10-02T04:16:37.709Z,93.55
2017-10-02T04:17:37.689Z,93.65
2017-10-02T04:18:37.662Z,93.93
2017-10-02T04:19:37.645Z,93.74
2017-10-02T04:20:37.624Z,93.74
2017-10-02T04:21:37.599Z,93.74
2017-10-02T04:22:37.573Z,93.74
2017-10-02T04:23:37.554Z,93.74
2017-10-02T04:24:37.524Z,93.84
2017-10-02T04:25:37.512Z,93.65
2017-10-02T04:26:37.481Z,93.93
2017-10-02T04:27:37.462Z,93.74
2017-10-02T04:28:37.438Z,93.65
2017-10-02T04:29:37.415Z,94.02
2017-10-02T04:30:37.394Z,93.74
2017-10-02T04:31:37.368Z,93.45
2017-10-02T04:32:37.348Z,93.65
2017-10-02T04:33:37.328Z,93.74
2017-10-02T04:34:37.305Z,93.65
2017-10-02T04:35:37.283Z,93.84
2017-10-02T04:36:37.258Z,93.65
2017-10-02T04:37:37.240Z,94.31
2017-10-02T04:38:37.216Z,93.65
2017-10-02T04:39:37.193Z,94.41
2017-10-02T04:40:37.176Z,94.51
2017-10-02T04:41:37.152Z,94.02
2017-10-02T04:42:37.125Z,94.51
2017-10-02T04:43:37.104Z,94.02
2017-10-02T04:44:37.086Z,94.41
2017-10-02T04:45:37.062Z,94.22
2017-10-02T04:46:37.038Z,94.12
2017-10-02T04:47:37.017Z,94.22
2017-10-02T04:48:36.993Z,94.22
2017-10-02T04:49:36.986Z,94.22
2017-10-02T04:50:36.951Z,94.22
2017-10-02T04:51:36.928Z,94.22
2017-10-02T04:52:36.907Z,94.22
2017-10-02T04:53:36.575Z,94.22
2017-10-02T04:54:36.858Z,94.22
2017-10-02T04:55:36.862Z,94.02
2017-10-02T04:56:36.813Z,94.02
2017-10-02T04:57:36.792Z,93.84
2017-10-02T04:58:36.775Z,94.22
2017-10-02T04:59:36.748Z,94.22
2017-10-02T05:00:36.726Z,93.84
2017-10-02T05:01:36.704Z,93.93
2017-10-02T05:02:36.678Z,94.22
2017-10-02T05:03:36.715Z,93.84
2017-10-02T05:04:36.684Z,94.02
2017-10-02T05:05:36.613Z,93.93
2017-10-02T05:06:36.588Z,94.02
2017-10-02T05:07:36.567Z,93.93
2017-10-02T05:08:36.545Z,93.93
2017-10-02T05:09:36.524Z,93.93
2017-10-02T05:10:36.501Z,93.93
2017-10-02T05:11:36.480Z,94.02
2017-10-02T05:12:36.461Z,93.93
2017-10-02T05:13:36.447Z,93.74
2017-10-02T05:14:36.414Z,93.84
2017-10-02T05:15:36.391Z,94.02
2017-10-02T05:16:36.373Z,93.93
2017-10-02T05:17:36.348Z,93.93
2017-10-02T05:18:36.329Z,93.55
2017-10-02T05:19:36.002Z,93.84
2017-10-02T05:20:36.280Z,93.84
2017-10-02T05:21:36.253Z,93.74
2017-10-02T05:22:36.286Z,93.84
2017-10-02T05:23:36.221Z,93.55
2017-10-02T05:24:36.192Z,93.74
2017-10-02T05:25:36.173Z,93.36
2017-10-02T05:26:36.145Z,93.93
2017-10-02T05:27:36.123Z,93.84
2017-10-02T05:28:36.107Z,93.74
2017-10-02T05:29:36.087Z,93.36
2017-10-02T05:30:36.057Z,93.55
2017-10-02T05:31:36.037Z,94.51
2017-10-02T05:32:36.012Z,94.6
2017-10-02T05:33:35.991Z,93.45
2017-10-02T05:34:35.967Z,93.84
2017-10-02T05:35:35.946Z,93.45
2017-10-02T05:36:35.927Z,93.55
2017-10-02T05:37:35.897Z,93.88
2017-10-02T05:38:35.880Z,94.41
2017-10-02T05:39:35.853Z,93.6
2017-10-02T05:40:35.851Z,93.4
2017-10-02T05:41:35.815Z,93.79
2017-10-02T05:42:35.796Z,93.79
2017-10-02T05:43:35.813Z,93.79
2017-10-02T05:44:35.748Z,93.4
2017-10-02T05:45:35.726Z,93.79
2017-10-02T05:46:35.704Z,93.6
2017-10-02T05:47:35.694Z,94.46
2017-10-02T05:48:35.668Z,93.79
2017-10-02T05:49:35.639Z,94.26
2017-10-02T05:50:35.611Z,94.51
2017-10-02T05:51:35.595Z,94.36
2017-10-02T05:52:35.576Z,94.12
2017-10-02T05:53:35.550Z,94.36
2017-10-02T05:54:35.527Z,94.46
2017-10-02T05:55:35.504Z,94.26
2017-10-02T05:56:35.485Z,94.26
2017-10-02T05:57:35.460Z,94.36
2017-10-02T05:58:35.434Z,93.93
2017-10-02T05:59:35.411Z,94.07
2017-10-02T06:00:35.402Z,94.17
2017-10-02T06:01:35.371Z,94.17
2017-10-02T06:02:35.351Z,93.88
2017-10-02T06:03:35.331Z,94.17
2017-10-02T06:04:35.307Z,94.07
2017-10-02T06:05:35.281Z,93.79
2017-10-02T06:06:35.259Z,94.17
2017-10-02T06:07:35.236Z,93.93
2017-10-02T06:08:35.214Z,93.98
2017-10-02T06:09:35.195Z,93.79
2017-10-02T06:10:35.168Z,93.88
2017-10-02T06:11:35.178Z,94.26
2017-10-02T06:12:35.133Z,94.36
2017-10-02T06:13:35.102Z,94.26
2017-10-02T06:14:35.081Z,93.79
2017-10-02T06:15:35.059Z,94.07
2017-10-02T06:16:35.044Z,93.79
2017-10-02T06:17:35.013Z,93.88
2017-10-02T06:18:34.992Z,93.88
2017-10-02T06:19:34.973Z,93.98
2017-10-02T06:20:34.948Z,93.98
2017-10-02T06:21:34.924Z,93.98
2017-10-02T06:22:34.904Z,94.36
2017-10-02T06:23:34.911Z,94.46
2017-10-02T06:24:34.857Z,94.46
2017-10-02T06:25:34.838Z,94.17
2017-10-02T06:26:34.814Z,94.55
2017-10-02T06:27:34.793Z,94.46
2017-10-02T06:28:34.766Z,94.36
2017-10-02T06:29:34.748Z,94.55
2017-10-02T06:30:34.727Z,94.46
2017-10-02T06:31:34.702Z,94.26
2017-10-02T06:32:34.690Z,94.93
2017-10-02T06:33:34.667Z,94.65
2017-10-02T06:34:34.683Z,94.65
2017-10-02T06:35:34.616Z,94.65
2017-10-02T06:36:34.599Z,94.36
2017-10-02T06:37:34.576Z,94.55
2017-10-02T06:38:34.558Z,94.46
2017-10-02T06:39:34.521Z,94.65
2017-10-02T06:40:34.511Z,94.26
2017-10-02T06:41:34.484Z,94.84
2017-10-02T06:42:34.459Z,94.65
2017-10-02T06:43:34.442Z,95.03
2017-10-02T06:44:34.412Z,94.84
2017-10-02T06:45:34.444Z,94.65
2017-10-02T06:46:34.372Z,94.55
2017-10-02T06:47:34.349Z,94.93
2017-10-02T06:48:34.022Z,94.46
2017-10-02T06:49:34.310Z,94.74
2017-10-02T06:50:33.977Z,94.93
2017-10-02T06:51:34.260Z,94.84
2017-10-02T06:52:34.239Z,95.03
2017-10-02T06:53:34.217Z,94.93
2017-10-02T06:54:34.188Z,94.84
2017-10-02T06:55:34.175Z,94.74
2017-10-02T06:56:34.148Z,94.84
2017-10-02T06:57:34.127Z,94.65
2017-10-02T06:58:33.817Z,95.03
2017-10-02T06:59:34.094Z,94.65
2017-10-02T07:00:34.066Z,94.74
2017-10-02T07:01:34.038Z,94.84
2017-10-02T07:02:34.016Z,94.84
2017-10-02T07:03:33.996Z,94.84
2017-10-02T07:04:33.985Z,94.84
2017-10-02T07:05:33.952Z,94.84
2017-10-02T07:06:33.936Z,94.93
2017-10-02T07:07:33.906Z,94.84
2017-10-02T07:08:33.894Z,94.84
2017-10-02T07:09:33.860Z,94.93
2017-10-02T07:10:33.846Z,95.32
2017-10-02T07:11:33.824Z,94.65
2017-10-02T07:12:33.849Z,94.79
2017-10-02T07:13:33.773Z,95.36
2017-10-02T07:14:33.756Z,94.65
2017-10-02T07:15:33.731Z,95.84
2017-10-02T07:16:33.706Z,95.65
2017-10-02T07:17:33.686Z,95.65
2017-10-02T07:18:33.667Z,95.56
2017-10-02T07:19:33.642Z,95.56
2017-10-02T07:20:33.623Z,95.51
2017-10-02T07:21:33.291Z,94.74
2017-10-02T07:22:33.576Z,94.89
2017-10-02T07:23:33.554Z,95.46
2017-10-02T07:24:33.528Z,95.75
2017-10-02T07:25:33.509Z,95.56
2017-10-02T07:26:33.485Z,95.46
2017-10-02T07:27:33.472Z,95.65
2017-10-02T07:28:33.490Z,95.46
2017-10-02T07:29:33.428Z,95.46
2017-10-02T07:30:33.441Z,95.36
2017-10-02T07:31:33.073Z,95.56
2017-10-02T07:32:33.354Z,95.46
2017-10-02T07:33:33.331Z,95.36
2017-10-02T07:34:33.314Z,95.75
2017-10-02T07:35:33.290Z,95.65
2017-10-02T07:36:33.273Z,95.46
2017-10-02T07:37:33.244Z,95.46
2017-10-02T07:38:33.225Z,95.36
2017-10-02T07:39:33.202Z,95.36
2017-10-02T07:40:33.183Z,95.27
2017-10-02T07:41:33.159Z,95.65
2017-10-02T07:42:33.138Z,95.56
2017-10-02T07:43:33.119Z,95.56
2017-10-02T07:44:33.111Z,95.27
2017-10-02T07:45:33.081Z,95.65
2017-10-02T07:46:33.051Z,95.17
2017-10-02T07:47:33.025Z,95.07
2017-10-02T07:48:33.007Z,95.46
2017-10-02T07:49:32.984Z,95.46
2017-10-02T07:50:32.964Z,95.65
2017-10-02T07:51:32.944Z,95.56
2017-10-02T07:52:32.918Z,95.46
2017-10-02T07:53:32.905Z,95.46
2017-10-02T07:54:32.871Z,95.46
2017-10-02T07:55:32.850Z,95.56
2017-10-02T07:56:32.829Z,95.56
2017-10-02T07:57:32.810Z,95.51
2017-10-02T07:58:32.782Z,95.65
2017-10-02T07:59:32.766Z,95.7
2017-10-02T08:00:32.746Z,95.27
2017-10-02T08:01:32.721Z,95.36
2017-10-02T08:02:32.699Z,95.7
2017-10-02T08:03:32.677Z,95.46
2017-10-02T08:04:32.659Z,95.61
2017-10-02T08:05:32.640Z,95.41
2017-10-02T08:06:32.613Z,95.41
2017-10-02T08:07:32.285Z,95.51
2017-10-02T08:08:32.571Z,94.74
2017-10-02T08:09:32.551Z,94.55
2017-10-02T08:10:32.524Z,95.03
2017-10-02T08:11:32.509Z,94.55
2017-10-02T08:12:32.482Z,94.55
2017-10-02T08:13:32.466Z,94.93
2017-10-02T08:14:32.439Z,94.93
2017-10-02T08:15:32.416Z,94.84
2017-10-02T08:16:32.397Z,94.84
2017-10-02T08:17:32.377Z,94.84
2017-10-02T08:18:32.352Z,94.84
2017-10-02T08:19:32.331Z,94.74
2017-10-02T08:20:32.310Z,95.12
2017-10-02T08:21:31.987Z,95.12
2017-10-02T08:22:32.266Z,94.65
2017-10-02T08:23:32.246Z,95.03
2017-10-02T08:24:32.230Z,94.45
2017-10-02T08:25:32.205Z,94.55
2017-10-02T08:26:31.878Z,94.65
2017-10-02T08:27:32.159Z,94.65
2017-10-02T08:28:32.154Z,94.55
2017-10-02T08:29:32.118Z,94.74
2017-10-02T08:30:32.096Z,94.6
2017-10-02T08:31:32.107Z,94.79
2017-10-02T08:32:32.058Z,94.89
2017-10-02T08:33:32.052Z,94.5
2017-10-02T08:34:32.010Z,94.31
2017-10-02T08:35:32.042Z,94.5
2017-10-02T08:36:31.984Z,94.31
2017-10-02T08:37:31.941Z,94.4
2017-10-02T08:38:31.925Z,94.21
2017-10-02T08:39:31.908Z,94.21
2017-10-02T08:40:31.878Z,93.93
2017-10-02T08:41:31.854Z,94.4
2017-10-02T08:42:31.843Z,94.12
2017-10-02T08:43:31.825Z,94.02
2017-10-02T08:44:31.794Z,93.93
2017-10-02T08:45:31.773Z,93.69
2017-10-02T08:46:31.752Z,93.78
2017-10-02T08:47:31.728Z,93.78
2017-10-02T08:48:31.709Z,93.78
2017-10-02T08:49:31.688Z,93.49
2017-10-02T08:50:31.723Z,93.78
2017-10-02T08:51:31.644Z,93.69
2017-10-02T08:52:31.624Z,93.49
2017-10-02T08:53:31.608Z,93.88
2017-10-02T08:54:31.582Z,93.59
2017-10-02T08:55:31.557Z,93.88
2017-10-02T08:56:31.235Z,94.07
2017-10-02T08:57:31.523Z,94.07
2017-10-02T08:58:31.495Z,93.69
2017-10-02T08:59:31.473Z,93.4
2017-10-02T09:00:31.459Z,93.4
2017-10-02T09:01:31.446Z,93.59
2017-10-02T09:02:31.416Z,93.78
2017-10-02T09:03:31.397Z,93.59
2017-10-02T09:04:31.370Z,93.69
2017-10-02T09:05:31.355Z,93.98
2017-10-02T09:06:31.329Z,93.78
2017-10-02T09:07:31.315Z,93.59
2017-10-02T09:08:31.287Z,93.69
2017-10-02T09:09:31.268Z,93.78
2017-10-02T09:10:31.243Z,93.49
2017-10-02T09:11:31.224Z,93.26
2017-10-02T09:12:31.208Z,93.35
2017-10-02T09:13:31.195Z,93.16
2017-10-02T09:14:31.164Z,93.3
2017-10-02T09:15:31.147Z,93.49
2017-10-02T09:16:31.170Z,93.3
2017-10-02T09:17:31.104Z,93.3
2017-10-02T09:18:31.076Z,93.3
2017-10-02T09:19:31.058Z,93.3
2017-10-02T09:20:31.035Z,93.4
2017-10-02T09:21:31.016Z,93.3
2017-10-02T09:22:31.000Z,93.49
2017-10-02T09:23:30.979Z,93.4
2017-10-02T09:24:30.960Z,93.4
2017-10-02T09:25:30.637Z,93.59
2017-10-02T09:26:30.916Z,93.54
2017-10-02T09:27:30.894Z,93.35
2017-10-02T09:28:30.876Z,93.49
2017-10-02T09:29:30.856Z,93.54
2017-10-02T09:30:30.836Z,93.63
2017-10-02T09:31:30.809Z,93.59
2017-10-02T09:32:30.791Z,93.49
2017-10-02T09:33:30.773Z,93.68
2017-10-02T09:34:30.751Z,92.72
2017-10-02T09:35:30.730Z,92.72
2017-10-02T09:36:30.709Z,93.06
2017-10-02T09:37:30.691Z,93.06
2017-10-02T09:38:30.698Z,93.35
2017-10-02T09:39:30.697Z,93.35
2017-10-02T09:40:30.335Z,93.25
2017-10-02T09:41:30.617Z,93.35
2017-10-02T09:42:30.586Z,93.06
2017-10-02T09:43:30.565Z,93.15
2017-10-02T09:44:30.553Z,92.86
2017-10-02T09:45:30.535Z,92.96
2017-10-02T09:46:30.513Z,92.96
2017-10-02T09:47:30.489Z,93.49
2017-10-02T09:48:30.465Z,93.44
2017-10-02T09:49:30.451Z,93.06
2017-10-02T09:50:30.430Z,93.2
2017-10-02T09:51:30.406Z,93.01
2017-10-02T09:52:30.394Z,93.39
2017-10-02T09:53:30.361Z,93.2
2017-10-02T09:54:30.041Z,93.44
2017-10-02T09:55:30.325Z,93.05
2017-10-02T09:56:30.307Z,93.25
2017-10-02T09:57:30.295Z,93.54
2017-10-02T09:58:30.270Z,93.63
2017-10-02T09:59:30.248Z,93.39
2017-10-02T10:00:30.228Z,93.49
2017-10-02T10:01:30.207Z,93.49
2017-10-02T10:02:30.190Z,93.73
2017-10-02T10:03:30.162Z,92.96
2017-10-02T10:04:30.157Z,93.63
2017-10-02T10:05:30.124Z,92.96
2017-10-02T10:06:30.106Z,93.15
2017-10-02T10:07:30.091Z,92.86
2017-10-02T10:08:30.066Z,92.96
2017-10-02T10:09:30.054Z,92.96
2017-10-02T10:10:30.065Z,93.25
2017-10-02T10:11:30.009Z,92.96
2017-10-02T10:12:29.987Z,93.25
2017-10-02T10:13:29.968Z,93.34
2017-10-02T10:14:29.951Z,93.25
2017-10-02T10:15:29.924Z,93.44
2017-10-02T10:16:29.914Z,93.25
2017-10-02T10:17:29.903Z,93.54
2017-10-02T10:18:29.872Z,93.44
2017-10-02T10:19:29.851Z,93.05
2017-10-02T10:20:29.832Z,93.34
2017-10-02T10:21:29.819Z,93.54
2017-10-02T10:22:29.811Z,93.25
2017-10-02T10:23:29.770Z,93.34
2017-10-02T10:24:29.441Z,92.91
2017-10-02T10:25:29.740Z,92.91
2017-10-02T10:26:29.728Z,93.01
2017-10-02T10:27:29.698Z,93.01
2017-10-02T10:28:29.723Z,93.05
2017-10-02T10:29:29.651Z,92.96
2017-10-02T10:30:29.635Z,92.29
2017-10-02T10:31:29.612Z,92.38
2017-10-02T10:32:29.597Z,92.38
2017-10-02T10:33:29.582Z,92.19
2017-10-02T10:34:29.559Z,92.19
2017-10-02T10:35:29.546Z,92.38
2017-10-02T10:36:29.520Z,92.19
2017-10-02T10:37:29.499Z,91.66
2017-10-02T10:38:29.482Z,92.04
2017-10-02T10:39:29.464Z,92.33
2017-10-02T10:40:29.491Z,91.46
2017-10-02T10:41:29.426Z,91.27
2017-10-02T10:42:29.409Z,91.27
2017-10-02T10:43:29.398Z,91.27
2017-10-02T10:44:29.366Z,91.27
2017-10-02T10:45:29.356Z,91.56
2017-10-02T10:46:29.332Z,91.56
2017-10-02T10:47:29.313Z,90.89
2017-10-02T10:48:29.295Z,90.98
2017-10-02T10:49:29.280Z,90.98
2017-10-02T10:50:29.256Z,91.13
2017-10-02T10:51:29.235Z,91.03
2017-10-02T10:52:29.225Z,91.31
2017-10-02T10:53:29.202Z,90.45
2017-10-02T10:54:29.179Z,90.64
2017-10-02T10:55:29.159Z,90.26
2017-10-02T10:56:29.140Z,90.45
2017-10-02T10:57:29.127Z,90.55
2017-10-02T10:58:29.103Z,90.35
2017-10-02T10:59:29.086Z,90.35
2017-10-02T11:00:29.062Z,90.64
2017-10-02T11:01:29.047Z,89.87
2017-10-02T11:02:29.029Z,90.35
2017-10-02T11:03:29.015Z,90.35
2017-10-02T11:04:28.990Z,89.87
2017-10-02T11:05:28.978Z,89.78
2017-10-02T11:06:28.950Z,89.68
2017-10-02T11:07:28.940Z,89.64
2017-10-02T11:08:28.917Z,89.92
2017-10-02T11:09:28.894Z,90.12
2017-10-02T11:10:28.875Z,89.44
2017-10-02T11:11:28.882Z,89.83
2017-10-02T11:12:28.851Z,89.44
2017-10-02T11:13:28.828Z,89.73
2017-10-02T11:14:28.800Z,89.54
2017-10-02T11:15:28.788Z,89.44
2017-10-02T11:16:28.767Z,89.44
2017-10-02T11:17:28.449Z,89.01
2017-10-02T11:18:28.421Z,89.49
2017-10-02T11:19:28.710Z,89.1
2017-10-02T11:20:28.690Z,89.25
2017-10-02T11:21:28.673Z,89.58
2017-10-02T11:22:28.656Z,89.25
2017-10-02T11:23:28.687Z,89.2
2017-10-02T11:24:28.615Z,89.01
2017-10-02T11:25:28.593Z,89.29
2017-10-02T11:26:28.577Z,88.62
2017-10-02T11:27:28.254Z,89.39
2017-10-02T11:28:28.546Z,88.67
2017-10-02T11:29:28.529Z,89.01
2017-10-02T11:30:28.533Z,88.04
2017-10-02T11:31:28.243Z,88.24
2017-10-02T11:32:28.462Z,88.33
2017-10-02T11:33:28.135Z,88.04
2017-10-02T11:34:28.428Z,88.43
2017-10-02T11:35:28.411Z,87.9
2017-10-02T11:36:28.395Z,87.81
2017-10-02T11:37:28.370Z,88.29
2017-10-02T11:38:28.348Z,88.1
2017-10-02T11:39:28.361Z,87.81
2017-10-02T11:40:28.328Z,87.86
2017-10-02T11:41:27.985Z,88.15
2017-10-02T11:42:28.280Z,88.24
2017-10-02T11:43:28.265Z,87.86
2017-10-02T11:44:28.237Z,88.24
2017-10-02T11:45:28.219Z,87.67
2017-10-02T11:46:28.229Z,88.15
2017-10-02T11:47:28.175Z,88.01
2017-10-02T11:48:28.168Z,88.2
2017-10-02T11:49:28.144Z,88.1
2017-10-02T11:50:28.126Z,88.2
2017-10-02T11:51:28.104Z,88.3
2017-10-02T11:52:28.082Z,88.68
2017-10-02T11:53:28.060Z,89.16
2017-10-02T11:54:28.044Z,88.68
2017-10-02T11:55:28.040Z,88.87
2017-10-02T11:56:27.997Z,88.49
2017-10-02T11:57:27.988Z,88.87
2017-10-02T11:58:27.981Z,88.68
2017-10-02T11:59:27.956Z,88.68
2017-10-02T12:00:27.925Z,88.68
2017-10-02T12:01:27.601Z,88.87
2017-10-02T12:02:27.593Z,88.68
2017-10-02T12:03:27.876Z,89.36
2017-10-02T12:04:27.840Z,88.39
2017-10-02T12:05:27.898Z,88.78
2017-10-02T12:06:27.807Z,88.97
2017-10-02T12:07:27.792Z,89.07
2017-10-02T12:08:27.770Z,88.78
2017-10-02T12:09:27.758Z,88.68
2017-10-02T12:10:27.736Z,88.59
2017-10-02T12:11:27.724Z,88.87
2017-10-02T12:12:27.375Z,88.87
2017-10-02T12:13:27.668Z,88.93
2017-10-02T12:14:27.643Z,87.96
2017-10-02T12:15:27.624Z,88.78
2017-10-02T12:16:27.603Z,88.3
2017-10-02T12:17:27.588Z,88.3
2017-10-02T12:18:27.273Z,88.2
2017-10-02T12:19:27.546Z,88.01
2017-10-02T12:20:27.528Z,88.1
2017-10-02T12:21:27.511Z,87.86
2017-10-02T12:22:27.530Z,87.96
2017-10-02T12:23:27.484Z,88.01
2017-10-02T12:24:27.447Z,87.67
2017-10-02T12:25:27.433Z,87.67
2017-10-02T12:26:27.408Z,87.57
2017-10-02T12:27:27.091Z,87.67
2017-10-02T12:28:27.374Z,87.96
2017-10-02T12:29:27.045Z,87.96
2017-10-02T12:30:27.021Z,87.48
2017-10-02T12:31:27.323Z,87.67
2017-10-02T12:32:27.302Z,88.24
2017-10-02T12:33:27.282Z,87.19
2017-10-02T12:34:27.269Z,87.38
2017-10-02T12:35:27.243Z,87.48
2017-10-02T12:36:27.217Z,87.48
2017-10-02T12:37:27.192Z,87.33
2017-10-02T12:38:27.173Z,87.48
2017-10-02T12:39:27.156Z,87.81
2017-10-02T12:40:27.132Z,86.94
2017-10-02T12:41:27.121Z,87.23
2017-10-02T12:42:27.094Z,87.04
2017-10-02T12:43:27.067Z,86.94
2017-10-02T12:44:27.064Z,86.27
2017-10-02T12:45:27.030Z,86.56
2017-10-02T12:46:27.007Z,86.18
2017-10-02T12:47:26.694Z,86.27
2017-10-02T12:48:26.681Z,85.69
2017-10-02T12:49:26.958Z,85.21
2017-10-02T12:50:26.934Z,84.92
2017-10-02T12:51:26.915Z,83.86
2017-10-02T12:52:26.903Z,83.29
2017-10-02T12:53:26.878Z,83.58
2017-10-02T12:54:26.859Z,83.39